createdAt,value
2022-08-25T00:00:13.094Z,28.03
2022-08-25T00:02:41.712Z,28.00
2022-08-25T00:05:26.336Z,27.99
2022-08-25T00:07:55.644Z,27.99
2022-08-25T00:10:23.352Z,27.97
2022-08-25T00:12:51.077Z,27.92
2022-08-25T00:15:18.824Z,27.66
2022-08-25T00:17:46.582Z,27.94
2022-08-25T00:20:14.618Z,27.92
2022-08-25T00:22:43.705Z,27.92
2022-08-25T00:25:11.408Z,27.90
2022-08-25T00:27:39.197Z,27.89
2022-08-25T00:30:08.528Z,27.88
2022-08-25T00:32:36.247Z,27.86
2022-08-25T00:35:04.474Z,27.84
2022-08-25T00:37:32.273Z,27.83
2022-08-25T00:40:02.274Z,27.83
2022-08-25T00:42:30.047Z,27.80
2022-08-25T00:44:58.187Z,27.78
2022-08-25T00:47:26.060Z,27.41
2022-08-25T00:49:55.316Z,27.36
2022-08-25T00:52:24.262Z,27.75
2022-08-25T00:54:53.252Z,27.42
2022-08-25T00:57:33.962Z,27.43
2022-08-25T01:00:03.064Z,27.71
2022-08-25T01:02:30.854Z,27.70
2022-08-25T01:04:58.880Z,27.68
2022-08-25T01:07:26.608Z,27.67
2022-08-25T01:09:54.425Z,27.65
2022-08-25T01:12:23.516Z,27.65
2022-08-25T01:14:51.238Z,27.63
2022-08-25T01:17:18.949Z,27.61
2022-08-25T01:19:46.640Z,27.61
2022-08-25T01:22:17.358Z,27.56
2022-08-25T01:24:48.630Z,27.58
2022-08-25T01:27:16.388Z,27.29
2022-08-25T01:29:44.130Z,27.56
2022-08-25T01:32:13.305Z,27.50
2022-08-25T01:34:42.403Z,27.52
2022-08-25T01:37:13.360Z,27.49
2022-08-25T01:39:42.622Z,27.46
2022-08-25T01:42:29.376Z,27.46
2022-08-25T01:44:57.568Z,27.45
2022-08-25T01:47:25.468Z,27.44
2022-08-25T01:49:53.161Z,27.41
2022-08-25T01:52:22.380Z,27.41
2022-08-25T01:54:51.414Z,27.40
2022-08-25T01:57:19.156Z,27.38
2022-08-25T01:59:47.522Z,27.28
2022-08-25T02:02:15.317Z,27.03
2022-08-25T02:04:46.070Z,27.34
2022-08-25T02:07:13.805Z,27.34
2022-08-25T02:09:41.505Z,27.33
2022-08-25T02:12:11.020Z,27.33
2022-08-25T02:14:38.772Z,27.31
2022-08-25T02:17:07.163Z,27.29
2022-08-25T02:19:34.916Z,27.28
2022-08-25T02:22:02.703Z,27.24
2022-08-25T02:24:30.424Z,26.53
2022-08-25T02:26:58.838Z,27.25
2022-08-25T02:29:27.888Z,27.23
2022-08-25T02:31:55.612Z,27.21
2022-08-25T02:34:23.839Z,27.20
2022-08-25T02:36:51.569Z,27.18
2022-08-25T02:39:19.274Z,27.17
2022-08-25T02:41:46.997Z,27.14
2022-08-25T02:44:14.698Z,27.14
2022-08-25T02:46:44.371Z,27.12
2022-08-25T02:49:12.096Z,27.10
2022-08-25T02:51:39.815Z,27.10
2022-08-25T02:54:07.561Z,27.10
2022-08-25T02:56:35.326Z,27.09
2022-08-25T02:59:03.060Z,26.71
2022-08-25T03:01:31.016Z,27.06
2022-08-25T03:04:00.197Z,27.01
2022-08-25T03:06:28.562Z,26.72
2022-08-25T03:08:56.408Z,26.78
2022-08-25T03:11:26.645Z,26.99
2022-08-25T03:13:54.440Z,26.98
2022-08-25T03:16:22.271Z,26.95
2022-08-25T03:18:50.197Z,26.94
2022-08-25T03:21:20.460Z,26.91
2022-08-25T03:23:48.552Z,26.85
2022-08-25T03:26:34.128Z,26.91
2022-08-25T03:29:05.024Z,26.89
2022-08-25T03:31:33.198Z,26.89
2022-08-25T03:34:01.000Z,26.88
2022-08-25T03:36:30.143Z,26.87
2022-08-25T03:38:57.899Z,26.86
2022-08-25T03:41:29.577Z,26.45
2022-08-25T03:43:57.630Z,26.83
2022-08-25T03:46:28.303Z,26.80
2022-08-25T03:48:56.028Z,26.75
2022-08-25T03:51:24.280Z,26.79
2022-08-25T03:53:53.495Z,26.80
2022-08-25T03:56:21.277Z,26.43
2022-08-25T03:58:49.537Z,26.75
2022-08-25T04:01:18.219Z,26.73
2022-08-25T04:03:46.186Z,26.29
2022-08-25T04:06:14.042Z,26.35
2022-08-25T04:08:42.021Z,26.68
2022-08-25T04:11:11.809Z,26.70
2022-08-25T04:13:39.554Z,26.69
2022-08-25T04:16:11.853Z,26.34
2022-08-25T04:18:39.840Z,26.70
2022-08-25T04:21:09.136Z,26.64
2022-08-25T04:23:36.926Z,26.61
2022-08-25T04:26:11.137Z,26.33
2022-08-25T04:28:38.925Z,26.58
2022-08-25T04:31:07.879Z,26.57
2022-08-25T04:33:35.704Z,26.55
2022-08-25T04:36:03.456Z,26.55
2022-08-25T04:38:32.406Z,26.55
2022-08-25T04:41:00.316Z,26.50
2022-08-25T04:43:29.402Z,26.49
2022-08-25T04:45:57.213Z,26.35
2022-08-25T04:48:24.971Z,26.50
2022-08-25T04:50:52.672Z,26.45
2022-08-25T04:53:22.446Z,26.40
2022-08-25T04:55:50.142Z,26.39
2022-08-25T04:58:18.007Z,26.35
2022-08-25T05:00:47.820Z,26.34
2022-08-25T05:03:15.592Z,26.30
2022-08-25T05:05:43.310Z,26.32
2022-08-25T05:08:11.148Z,26.34
2022-08-25T05:10:40.802Z,26.31
2022-08-25T05:13:10.156Z,26.32
2022-08-25T05:15:53.074Z,26.32
2022-08-25T05:18:23.201Z,26.32
2022-08-25T05:20:51.301Z,26.03
2022-08-25T05:23:19.039Z,26.29
2022-08-25T05:25:46.743Z,26.26
2022-08-25T05:28:14.842Z,26.27
2022-08-25T05:30:43.347Z,26.24
2022-08-25T05:33:11.223Z,26.20
2022-08-25T05:35:40.291Z,26.20
2022-08-25T05:38:08.015Z,26.19
2022-08-25T05:40:43.344Z,26.18
2022-08-25T05:43:12.374Z,26.13
2022-08-25T05:45:40.641Z,26.05
2022-08-25T05:48:08.563Z,26.05
2022-08-25T05:50:36.270Z,26.02
2022-08-25T05:53:05.497Z,26.03
2022-08-25T05:55:33.201Z,26.05
2022-08-25T05:58:00.952Z,26.04
2022-08-25T06:00:28.688Z,25.91
2022-08-25T06:02:55.454Z,25.74
2022-08-25T06:05:24.001Z,25.66
2022-08-25T06:07:52.645Z,25.70
2022-08-25T06:10:22.011Z,25.79
2022-08-25T06:12:50.160Z,25.82
2022-08-25T06:15:19.006Z,25.86
2022-08-25T06:17:46.772Z,25.90
2022-08-25T06:20:16.756Z,25.96
2022-08-25T06:22:44.421Z,25.96
2022-08-25T06:25:12.978Z,26.01
2022-08-25T06:27:42.062Z,26.05
2022-08-25T06:30:11.544Z,26.09
2022-08-25T06:32:40.826Z,25.62
2022-08-25T06:35:10.513Z,25.85
2022-08-25T06:37:38.290Z,25.68
2022-08-25T06:40:06.876Z,25.46
2022-08-25T06:42:34.863Z,25.68
2022-08-25T06:45:04.083Z,25.50
2022-08-25T06:47:32.012Z,25.67
2022-08-25T06:49:59.733Z,25.67
2022-08-25T06:52:29.151Z,25.70
2022-08-25T06:54:57.347Z,25.68
2022-08-25T06:57:25.077Z,25.66
2022-08-25T06:59:54.290Z,25.61
2022-08-25T07:02:23.877Z,25.68
2022-08-25T07:04:53.527Z,25.72
2022-08-25T07:07:21.435Z,25.77
2022-08-25T07:09:49.141Z,25.78
2022-08-25T07:12:16.865Z,25.74
2022-08-25T07:14:53.396Z,25.54
2022-08-25T07:17:32.835Z,25.80
2022-08-25T07:20:01.216Z,25.82
2022-08-25T07:22:28.945Z,25.81
2022-08-25T07:24:56.700Z,25.87
2022-08-25T07:27:25.846Z,25.90
2022-08-25T07:29:54.081Z,25.91
2022-08-25T07:32:21.807Z,25.96
2022-08-25T07:35:08.513Z,26.05
2022-08-25T07:37:48.921Z,26.06
2022-08-25T07:40:18.632Z,25.76
2022-08-25T07:42:46.647Z,26.16
2022-08-25T07:45:15.623Z,25.56
2022-08-25T07:47:48.796Z,26.28
2022-08-25T07:50:20.931Z,26.28
2022-08-25T07:52:53.923Z,26.02
2022-08-25T07:55:23.657Z,26.39
2022-08-25T07:57:55.923Z,26.42
2022-08-25T08:00:27.459Z,26.47
2022-08-25T08:02:55.349Z,26.50
2022-08-25T08:05:24.538Z,26.58
2022-08-25T08:07:52.323Z,26.61
2022-08-25T08:13:08.041Z,26.71
2022-08-25T08:15:35.894Z,26.74
2022-08-25T08:18:05.268Z,26.79
2022-08-25T08:20:42.915Z,26.46
2022-08-25T08:23:11.162Z,26.52
2022-08-25T08:25:38.862Z,26.97
2022-08-25T08:28:07.254Z,27.06
2022-08-25T08:30:36.520Z,27.06
2022-08-25T08:33:10.215Z,27.09
2022-08-25T08:35:41.252Z,27.13
2022-08-25T08:38:14.733Z,27.21
2022-08-25T08:41:09.439Z,27.26
2022-08-25T08:43:37.392Z,27.28
2022-08-25T08:46:07.502Z,27.30
2022-08-25T08:48:50.165Z,27.23
2022-08-25T08:51:23.130Z,27.10
2022-08-25T08:53:54.076Z,27.18
2022-08-25T08:56:30.790Z,27.18
2022-08-25T08:59:05.587Z,27.56
2022-08-25T09:01:35.160Z,27.66
2022-08-25T09:04:05.984Z,27.57
2022-08-25T09:06:38.953Z,27.49
2022-08-25T09:09:07.099Z,27.84
2022-08-25T09:11:47.981Z,27.91
2022-08-25T09:14:30.440Z,27.89
2022-08-25T09:17:01.138Z,28.01
2022-08-25T09:19:43.829Z,28.04
2022-08-25T09:22:34.000Z,28.05
2022-08-25T09:25:08.919Z,28.01
2022-08-25T09:27:40.555Z,28.16
2022-08-25T09:30:10.114Z,28.16
2022-08-25T09:32:40.545Z,28.21
2022-08-25T09:35:08.847Z,28.27
2022-08-25T09:37:37.924Z,28.28
2022-08-25T09:40:06.539Z,28.28
2022-08-25T09:42:49.644Z,28.24
2022-08-25T09:45:17.660Z,28.34
2022-08-25T09:47:46.603Z,27.91
2022-08-25T09:50:18.623Z,27.88
2022-08-25T09:52:47.827Z,28.43
2022-08-25T09:55:28.634Z,28.47
2022-08-25T09:57:56.944Z,28.45
2022-08-25T10:00:27.568Z,28.47
2022-08-25T10:03:24.868Z,28.57
2022-08-25T10:06:02.187Z,28.58
2022-08-25T10:08:36.371Z,28.59
2022-08-25T10:11:06.499Z,28.57
2022-08-25T10:13:40.115Z,28.45
2022-08-25T10:16:18.062Z,28.20
2022-08-25T10:18:50.777Z,28.62
2022-08-25T10:21:19.590Z,28.69
2022-08-25T10:23:49.677Z,28.68
2022-08-25T10:26:32.019Z,28.69
2022-08-25T10:29:11.903Z,28.40
2022-08-25T10:31:42.303Z,28.70
2022-08-25T10:34:20.726Z,28.74
2022-08-25T10:36:56.086Z,28.69
2022-08-25T10:39:34.162Z,28.45
2022-08-25T10:42:07.758Z,28.74
2022-08-25T10:44:54.951Z,28.82
2022-08-25T10:47:58.182Z,28.84
2022-08-25T10:50:30.391Z,28.71
2022-08-25T10:53:06.587Z,28.85
2022-08-25T10:55:43.310Z,28.86
2022-08-25T10:58:14.871Z,28.55
2022-08-25T11:00:46.582Z,28.88
2022-08-25T11:03:21.807Z,28.00
2022-08-25T11:05:54.891Z,28.87
2022-08-25T11:08:26.433Z,28.72
2022-08-25T11:10:59.543Z,28.90
2022-08-25T11:13:30.179Z,28.91
2022-08-25T11:16:18.772Z,28.90
2022-08-25T11:18:53.069Z,28.85
2022-08-25T11:21:22.880Z,28.91
2022-08-25T11:23:53.759Z,28.90
2022-08-25T11:26:31.871Z,28.75
2022-08-25T11:29:04.099Z,28.92
2022-08-25T11:31:31.825Z,28.94
2022-08-25T11:33:59.557Z,28.92
2022-08-25T11:36:29.877Z,28.60
2022-08-25T11:39:05.075Z,28.62
2022-08-25T11:41:37.116Z,28.68
2022-08-25T11:44:14.044Z,28.96
2022-08-25T11:46:51.227Z,28.99
2022-08-25T11:49:44.472Z,29.05
2022-08-25T11:52:46.007Z,29.09
2022-08-25T11:55:14.532Z,29.09
2022-08-25T11:57:43.690Z,29.12
2022-08-25T12:00:14.713Z,29.12
2022-08-25T12:02:44.039Z,29.15
2022-08-25T12:05:36.175Z,29.16
2022-08-25T12:08:23.403Z,29.08
2022-08-25T12:10:56.311Z,29.21
2022-08-25T12:13:40.771Z,29.11
2022-08-25T12:16:08.920Z,29.33
2022-08-25T12:18:45.903Z,29.33
2022-08-25T12:21:16.276Z,29.34
2022-08-25T12:23:45.286Z,29.37
2022-08-25T12:26:18.642Z,29.41
2022-08-25T12:29:07.943Z,29.42
2022-08-25T12:31:48.271Z,29.45
2022-08-25T12:34:24.336Z,29.40
2022-08-25T12:36:58.983Z,28.88
2022-08-25T12:39:31.016Z,29.40
2022-08-25T12:44:47.933Z,29.39
2022-08-25T12:47:31.900Z,29.26
2022-08-25T12:50:33.531Z,29.42
2022-08-25T12:53:10.068Z,29.39
2022-08-25T12:55:38.601Z,29.40
2022-08-25T12:58:06.610Z,29.45
2022-08-25T13:00:46.242Z,29.42
2022-08-25T13:03:34.644Z,29.38
2022-08-25T13:06:27.200Z,29.39
2022-08-25T13:09:24.920Z,29.37
2022-08-25T13:11:54.766Z,29.33
2022-08-25T13:14:27.264Z,29.32
2022-08-25T13:16:57.712Z,29.34
2022-08-25T13:19:25.601Z,29.34
2022-08-25T13:21:54.745Z,29.36
2022-08-25T13:24:23.675Z,29.26
2022-08-25T13:26:53.677Z,29.41
2022-08-25T13:29:22.582Z,29.45
2022-08-25T13:32:01.582Z,29.44
2022-08-25T13:34:34.950Z,29.42
2022-08-25T13:37:24.156Z,29.44
2022-08-25T13:39:56.474Z,29.51
2022-08-25T13:42:29.031Z,29.53
2022-08-25T13:44:57.193Z,29.56
2022-08-25T13:47:45.290Z,29.59
2022-08-25T13:50:22.788Z,29.58
2022-08-25T13:52:55.268Z,29.57
2022-08-25T13:55:27.615Z,29.56
2022-08-25T13:57:57.220Z,29.39
2022-08-25T14:00:33.079Z,29.52
2022-08-25T14:03:03.454Z,29.60
2022-08-25T14:05:40.839Z,29.59
2022-08-25T14:08:33.243Z,29.56
2022-08-25T14:11:07.748Z,29.64
2022-08-25T14:13:44.551Z,29.67
2022-08-25T14:16:15.173Z,29.47
2022-08-25T14:18:50.024Z,29.44
2022-08-25T14:21:17.775Z,29.72
2022-08-25T14:23:46.892Z,29.78
2022-08-25T14:26:15.288Z,29.82
2022-08-25T14:28:44.182Z,29.90
2022-08-25T14:31:14.918Z,29.69
2022-08-25T14:33:43.861Z,29.93
2022-08-25T14:36:20.896Z,29.98
2022-08-25T14:38:54.513Z,30.01
2022-08-25T14:41:23.689Z,30.05
2022-08-25T14:43:51.509Z,30.08
2022-08-25T14:46:21.374Z,29.75
2022-08-25T14:48:50.738Z,30.08
2022-08-25T14:51:19.780Z,30.13
2022-08-25T14:53:48.159Z,30.14
2022-08-25T14:56:16.156Z,30.05
2022-08-25T14:58:48.351Z,30.14
2022-08-25T15:01:20.197Z,29.82
2022-08-25T15:03:57.959Z,29.87
2022-08-25T15:06:27.154Z,30.20
2022-08-25T15:09:11.209Z,30.24
2022-08-25T15:11:41.609Z,30.11
2022-08-25T15:14:10.966Z,30.18
2022-08-25T15:16:41.288Z,29.98
2022-08-25T15:19:09.646Z,30.22
2022-08-25T15:21:39.004Z,30.21
2022-08-25T15:24:07.197Z,30.23
2022-08-25T15:26:35.639Z,30.23
2022-08-25T15:29:04.377Z,29.97
2022-08-25T15:31:32.119Z,30.17
2022-08-25T15:34:00.909Z,30.17
2022-08-25T15:36:29.004Z,30.14
2022-08-25T15:38:58.150Z,30.13
2022-08-25T15:41:27.902Z,30.11
2022-08-25T15:43:55.942Z,30.09
2022-08-25T15:46:24.992Z,30.07
2022-08-25T15:48:52.862Z,30.05
2022-08-25T15:51:20.592Z,30.01
2022-08-25T15:53:48.569Z,30.00
2022-08-25T15:56:26.655Z,29.98
2022-08-25T15:58:55.531Z,29.62
2022-08-25T16:01:24.962Z,29.95
2022-08-25T16:03:52.785Z,29.93
2022-08-25T16:06:20.655Z,29.68
2022-08-25T16:08:48.662Z,29.92
2022-08-25T16:11:19.727Z,29.86
2022-08-25T16:13:49.284Z,29.92
2022-08-25T16:16:18.401Z,29.92
2022-08-25T16:18:46.294Z,29.94
2022-08-25T16:21:19.462Z,29.95
2022-08-25T16:23:49.405Z,29.96
2022-08-25T16:26:18.695Z,29.98
2022-08-25T16:28:46.422Z,30.00
2022-08-25T16:31:15.181Z,30.03
2022-08-25T16:36:08.352Z,29.90
2022-08-25T16:38:36.580Z,30.17
2022-08-25T16:41:08.805Z,30.18
2022-08-25T16:43:38.259Z,30.22
2022-08-25T16:46:07.404Z,30.22
2022-08-25T16:48:35.129Z,30.19
2022-08-25T16:51:07.242Z,30.18
2022-08-25T16:53:53.595Z,30.18
2022-08-25T16:56:24.805Z,30.20
2022-08-25T16:58:57.058Z,30.22
2022-08-25T17:01:25.202Z,30.22
2022-08-25T17:03:53.119Z,29.97
2022-08-25T17:06:20.905Z,30.26
2022-08-25T17:08:50.823Z,30.30
2022-08-25T17:11:20.262Z,30.33
2022-08-25T17:13:49.692Z,30.34
2022-08-25T17:16:19.023Z,30.32
2022-08-25T17:18:48.112Z,30.33
2022-08-25T17:21:24.184Z,30.34
2022-08-25T17:23:53.006Z,30.33
2022-08-25T17:26:28.098Z,30.33
2022-08-25T17:28:57.011Z,30.33
2022-08-25T17:31:28.487Z,30.34
2022-08-25T17:33:57.825Z,30.35
2022-08-25T17:36:27.142Z,30.30
2022-08-25T17:38:55.128Z,30.30
2022-08-25T17:41:25.015Z,30.30
2022-08-25T17:43:52.763Z,30.29
2022-08-25T17:46:21.451Z,30.27
2022-08-25T17:48:50.648Z,30.25
2022-08-25T17:51:18.367Z,30.21
2022-08-25T17:53:46.817Z,30.17
2022-08-25T17:56:15.859Z,29.77
2022-08-25T17:58:44.561Z,30.09
2022-08-25T18:01:16.624Z,30.06
2022-08-25T18:03:44.518Z,30.03
2022-08-25T18:06:16.007Z,30.01
2022-08-25T18:08:44.197Z,29.65
2022-08-25T18:11:12.179Z,29.67
2022-08-25T18:13:41.512Z,29.93
2022-08-25T18:16:09.414Z,29.91
2022-08-25T18:18:37.280Z,29.88
2022-08-25T18:21:05.391Z,29.85
2022-08-25T18:23:36.198Z,29.84
2022-08-25T18:26:03.889Z,29.82
2022-08-25T18:28:34.475Z,29.78
2022-08-25T18:31:03.154Z,29.76
2022-08-25T18:33:30.936Z,29.74
2022-08-25T18:35:58.876Z,29.44
2022-08-25T18:38:44.029Z,29.46
2022-08-25T18:41:14.470Z,29.66
2022-08-25T18:43:42.270Z,29.62
2022-08-25T18:46:10.121Z,29.61
2022-08-25T18:48:37.922Z,29.60
2022-08-25T18:51:06.082Z,29.19
2022-08-25T18:53:49.604Z,29.56
2022-08-25T18:56:19.316Z,29.54
2022-08-25T18:58:47.190Z,29.52
2022-08-25T19:01:15.085Z,29.50
2022-08-25T19:03:43.200Z,29.49
2022-08-25T19:06:11.125Z,29.39
2022-08-25T19:08:41.834Z,29.06
2022-08-25T19:11:10.115Z,29.42
2022-08-25T19:13:39.298Z,29.41
2022-08-25T19:16:11.702Z,29.40
2022-08-25T19:18:40.051Z,29.37
2022-08-25T19:21:08.559Z,29.35
2022-08-25T19:23:38.079Z,29.34
2022-08-25T19:26:07.895Z,28.97
2022-08-25T19:28:45.900Z,29.30
2022-08-25T19:31:16.506Z,29.29
2022-08-25T19:33:46.433Z,29.26
2022-08-25T19:36:14.301Z,29.26
2022-08-25T19:38:42.046Z,29.22
2022-08-25T19:41:14.695Z,29.23
2022-08-25T19:43:56.547Z,29.23
2022-08-25T19:46:25.480Z,29.20
2022-08-25T19:48:53.251Z,29.19
2022-08-25T19:51:21.987Z,29.19
2022-08-25T19:53:54.684Z,29.14
2022-08-25T19:56:23.472Z,29.16
2022-08-25T19:58:52.575Z,29.16
2022-08-25T20:01:23.034Z,29.14
2022-08-25T20:03:52.143Z,29.13
2022-08-25T20:06:19.856Z,29.11
2022-08-25T20:08:47.546Z,29.10
2022-08-25T20:11:27.020Z,29.07
2022-08-25T20:13:58.166Z,29.07
2022-08-25T20:16:28.209Z,29.06
2022-08-25T20:18:56.009Z,29.04
2022-08-25T20:21:25.139Z,29.03
2022-08-25T20:24:10.613Z,29.02
2022-08-25T20:26:38.440Z,28.99
2022-08-25T20:29:10.160Z,29.00
2022-08-25T20:31:37.851Z,28.98
2022-08-25T20:34:06.584Z,28.97
2022-08-25T20:36:35.280Z,28.97
2022-08-25T20:39:04.590Z,28.95
2022-08-25T20:41:33.871Z,28.93
2022-08-25T20:44:05.241Z,27.35
2022-08-25T20:46:34.756Z,28.92
2022-08-25T20:49:05.970Z,28.89
2022-08-25T20:51:33.664Z,28.89
2022-08-25T20:54:01.386Z,28.89
2022-08-25T20:56:30.079Z,28.87
2022-08-25T20:58:57.800Z,28.85
2022-08-25T21:01:37.422Z,28.86
2022-08-25T21:04:07.281Z,28.83
2022-08-25T21:06:35.421Z,28.83
2022-08-25T21:09:03.170Z,28.81
2022-08-25T21:11:31.135Z,28.80
2022-08-25T21:13:59.089Z,28.79
2022-08-25T21:16:27.168Z,28.78
2022-08-25T21:18:56.740Z,28.51
2022-08-25T21:21:25.894Z,28.77
2022-08-25T21:23:53.641Z,28.73
2022-08-25T21:26:22.841Z,28.48
2022-08-25T21:28:51.304Z,28.72
2022-08-25T21:31:20.550Z,28.71
2022-08-25T21:33:49.891Z,28.41
2022-08-25T21:36:21.118Z,28.71
2022-08-25T21:38:50.388Z,28.69
2022-08-25T21:41:20.753Z,28.68
2022-08-25T21:43:48.547Z,28.64
2022-08-25T21:46:17.354Z,28.66
2022-08-25T21:48:46.590Z,28.28
2022-08-25T21:51:15.591Z,28.64
2022-08-25T21:53:43.345Z,28.62
2022-08-25T21:56:15.949Z,28.62
2022-08-25T21:58:45.618Z,28.62
2022-08-25T22:01:19.358Z,28.24
2022-08-25T22:03:47.427Z,28.58
2022-08-25T22:06:16.272Z,28.58
2022-08-25T22:08:44.250Z,28.56
2022-08-25T22:11:18.068Z,28.04
2022-08-25T22:13:47.395Z,28.16
2022-08-25T22:16:21.525Z,28.55
2022-08-25T22:18:49.709Z,28.10
2022-08-25T22:21:18.464Z,28.53
2022-08-25T22:23:46.309Z,28.51
2022-08-25T22:26:16.286Z,28.52
2022-08-25T22:28:49.994Z,28.49
2022-08-25T22:31:20.648Z,28.49
2022-08-25T22:33:49.256Z,28.48
2022-08-25T22:36:18.030Z,28.47
2022-08-25T22:38:46.303Z,28.45
2022-08-25T22:41:18.858Z,28.44
2022-08-25T22:43:49.118Z,28.43
2022-08-25T22:46:17.196Z,28.41
2022-08-25T22:48:46.141Z,28.41
2022-08-25T22:51:15.079Z,28.02
2022-08-25T22:53:43.428Z,28.38
2022-08-25T22:56:11.598Z,28.36
2022-08-25T22:58:41.232Z,28.37
2022-08-25T23:01:13.453Z,28.36
2022-08-25T23:03:44.656Z,28.35
2022-08-25T23:06:18.679Z,28.33
2022-08-25T23:08:48.729Z,27.92
2022-08-25T23:11:16.642Z,27.99
2022-08-25T23:13:45.827Z,28.31
2022-08-25T23:16:13.754Z,28.28
2022-08-25T23:18:43.939Z,28.25
2022-08-25T23:21:29.041Z,28.25
2022-08-25T23:24:03.019Z,27.96
2022-08-25T23:26:32.862Z,28.25
2022-08-25T23:29:02.683Z,28.20
2022-08-25T23:31:31.115Z,28.22
2022-08-25T23:33:59.128Z,27.80
2022-08-25T23:36:30.559Z,28.21
2022-08-25T23:38:58.306Z,28.20
2022-08-25T23:41:26.292Z,28.18
2022-08-25T23:43:54.147Z,28.12
2022-08-25T23:46:24.876Z,28.17
2022-08-25T23:48:54.834Z,28.14
2022-08-25T23:51:24.833Z,28.15
2022-08-25T23:53:54.294Z,28.13
2022-08-25T23:56:22.267Z,28.10
2022-08-25T23:58:50.036Z,28.10
